sensor_id;sensor_type;location;lat;lon;timestamp;temperature;humidity
72905;DHT22;61048;52.162;4.516;2023-08-12T00:00:25;24.10;62.70
72905;DHT22;61048;52.162;4.516;2023-08-12T00:02:52;24.10;62.60
72905;DHT22;61048;52.162;4.516;2023-08-12T00:05:19;24.10;62.60
72905;DHT22;61048;52.162;4.516;2023-08-12T00:07:47;24.10;62.70
72905;DHT22;61048;52.162;4.516;2023-08-12T00:10:14;24.10;62.80
72905;DHT22;61048;52.162;4.516;2023-08-12T00:12:42;24.10;62.70
72905;DHT22;61048;52.162;4.516;2023-08-12T00:15:11;24.10;62.70
72905;DHT22;61048;52.162;4.516;2023-08-12T00:17:38;24.10;62.90
72905;DHT22;61048;52.162;4.516;2023-08-12T00:20:07;24.10;62.90
72905;DHT22;61048;52.162;4.516;2023-08-12T00:22:36;24.10;62.90
72905;DHT22;61048;52.162;4.516;2023-08-12T00:25:04;24.10;62.90
72905;DHT22;61048;52.162;4.516;2023-08-12T00:27:31;24.10;63.00
72905;DHT22;61048;52.162;4.516;2023-08-12T00:29:58;24.10;63.00
72905;DHT22;61048;52.162;4.516;2023-08-12T00:32:26;24.10;63.00
72905;DHT22;61048;52.162;4.516;2023-08-12T00:34:53;24.00;63.00
72905;DHT22;61048;52.162;4.516;2023-08-12T00:37:20;24.10;63.00
72905;DHT22;61048;52.162;4.516;2023-08-12T00:39:47;24.00;63.20
72905;DHT22;61048;52.162;4.516;2023-08-12T00:42:14;24.00;63.10
72905;DHT22;61048;52.162;4.516;2023-08-12T00:44:41;24.10;63.10
72905;DHT22;61048;52.162;4.516;2023-08-12T00:47:08;24.00;63.20
72905;DHT22;61048;52.162;4.516;2023-08-12T00:49:37;24.00;63.20
72905;DHT22;61048;52.162;4.516;2023-08-12T00:52:06;24.00;63.30
72905;DHT22;61048;52.162;4.516;2023-08-12T00:54:33;24.00;63.30
72905;DHT22;61048;52.162;4.516;2023-08-12T00:57:00;24.00;63.40
72905;DHT22;61048;52.162;4.516;2023-08-12T00:59:27;24.00;63.40
72905;DHT22;61048;52.162;4.516;2023-08-12T01:01:58;24.00;63.30
72905;DHT22;61048;52.162;4.516;2023-08-12T01:04:25;24.00;63.20
72905;DHT22;61048;52.162;4.516;2023-08-12T01:06:53;24.00;63.40
72905;DHT22;61048;52.162;4.516;2023-08-12T01:09:20;24.00;63.40
72905;DHT22;61048;52.162;4.516;2023-08-12T01:11:52;24.00;63.40
72905;DHT22;61048;52.162;4.516;2023-08-12T01:14:28;24.00;63.50
72905;DHT22;61048;52.162;4.516;2023-08-12T01:16:59;24.00;63.60
72905;DHT22;61048;52.162;4.516;2023-08-12T01:19:32;24.00;63.40
72905;DHT22;61048;52.162;4.516;2023-08-12T01:22:02;24.00;63.60
72905;DHT22;61048;52.162;4.516;2023-08-12T01:24:35;24.00;63.60
72905;DHT22;61048;52.162;4.516;2023-08-12T01:27:02;24.00;63.60
72905;DHT22;61048;52.162;4.516;2023-08-12T01:29:30;24.00;63.60
72905;DHT22;61048;52.162;4.516;2023-08-12T01:32:04;24.00;63.70
72905;DHT22;61048;52.162;4.516;2023-08-12T01:34:40;24.00;63.70
72905;DHT22;61048;52.162;4.516;2023-08-12T01:37:11;24.00;63.70
72905;DHT22;61048;52.162;4.516;2023-08-12T01:39:44;24.00;63.70
72905;DHT22;61048;52.162;4.516;2023-08-12T01:42:12;24.00;63.70
72905;DHT22;61048;52.162;4.516;2023-08-12T01:44:40;24.00;63.60
72905;DHT22;61048;52.162;4.516;2023-08-12T01:47:08;24.00;63.70
72905;DHT22;61048;52.162;4.516;2023-08-12T01:49:35;24.00;63.60
72905;DHT22;61048;52.162;4.516;2023-08-12T01:52:02;24.00;63.70
72905;DHT22;61048;52.162;4.516;2023-08-12T01:54:30;24.00;63.70
72905;DHT22;61048;52.162;4.516;2023-08-12T01:57:01;24.00;63.70
72905;DHT22;61048;52.162;4.516;2023-08-12T01:59:31;24.00;63.70
72905;DHT22;61048;52.162;4.516;2023-08-12T02:01:58;24.00;63.60
72905;DHT22;61048;52.162;4.516;2023-08-12T02:04:25;23.90;63.60
72905;DHT22;61048;52.162;4.516;2023-08-12T02:06:52;23.90;63.80
72905;DHT22;61048;52.162;4.516;2023-08-12T02:09:19;23.90;63.80
72905;DHT22;61048;52.162;4.516;2023-08-12T02:11:46;24.00;63.90
72905;DHT22;61048;52.162;4.516;2023-08-12T02:14:14;23.90;63.90
72905;DHT22;61048;52.162;4.516;2023-08-12T02:16:41;23.90;63.90
72905;DHT22;61048;52.162;4.516;2023-08-12T02:19:08;23.90;63.80
72905;DHT22;61048;52.162;4.516;2023-08-12T02:21:35;23.90;63.90
72905;DHT22;61048;52.162;4.516;2023-08-12T02:24:03;23.90;63.90
72905;DHT22;61048;52.162;4.516;2023-08-12T02:26:30;23.90;64.00
72905;DHT22;61048;52.162;4.516;2023-08-12T02:28:57;23.90;63.90
72905;DHT22;61048;52.162;4.516;2023-08-12T02:31:26;23.90;63.70
72905;DHT22;61048;52.162;4.516;2023-08-12T02:33:53;23.90;63.90
72905;DHT22;61048;52.162;4.516;2023-08-12T02:36:19;23.90;63.90
72905;DHT22;61048;52.162;4.516;2023-08-12T02:38:46;23.90;63.80
72905;DHT22;61048;52.162;4.516;2023-08-12T02:41:13;23.90;64.00
72905;DHT22;61048;52.162;4.516;2023-08-12T02:43:40;23.90;63.90
72905;DHT22;61048;52.162;4.516;2023-08-12T02:46:07;23.90;64.00
72905;DHT22;61048;52.162;4.516;2023-08-12T02:48:36;23.90;63.80
72905;DHT22;61048;52.162;4.516;2023-08-12T02:51:03;23.90;63.90
72905;DHT22;61048;52.162;4.516;2023-08-12T02:53:30;23.90;63.90
72905;DHT22;61048;52.162;4.516;2023-08-12T02:55:57;23.90;64.00
72905;DHT22;61048;52.162;4.516;2023-08-12T02:58:24;23.90;64.00
72905;DHT22;61048;52.162;4.516;2023-08-12T03:00:51;23.90;64.00
72905;DHT22;61048;52.162;4.516;2023-08-12T03:03:18;23.80;63.80
72905;DHT22;61048;52.162;4.516;2023-08-12T03:05:48;23.90;64.10
72905;DHT22;61048;52.162;4.516;2023-08-12T03:08:15;23.90;64.20
72905;DHT22;61048;52.162;4.516;2023-08-12T03:10:45;23.90;64.20
72905;DHT22;61048;52.162;4.516;2023-08-12T03:13:12;23.80;64.20
72905;DHT22;61048;52.162;4.516;2023-08-12T03:15:39;23.80;64.20
72905;DHT22;61048;52.162;4.516;2023-08-12T03:18:07;23.80;64.20
72905;DHT22;61048;52.162;4.516;2023-08-12T03:20:34;23.80;64.30
72905;DHT22;61048;52.162;4.516;2023-08-12T03:23:03;23.80;64.10
72905;DHT22;61048;52.162;4.516;2023-08-12T03:25:30;23.80;64.30
72905;DHT22;61048;52.162;4.516;2023-08-12T03:27:57;23.80;64.10
72905;DHT22;61048;52.162;4.516;2023-08-12T03:30:24;23.80;64.30
72905;DHT22;61048;52.162;4.516;2023-08-12T03:32:51;23.80;64.30
72905;DHT22;61048;52.162;4.516;2023-08-12T03:35:18;23.80;64.30
72905;DHT22;61048;52.162;4.516;2023-08-12T03:37:45;23.80;64.50
72905;DHT22;61048;52.162;4.516;2023-08-12T03:40:14;23.80;64.40
72905;DHT22;61048;52.162;4.516;2023-08-12T03:42:41;23.80;64.40
72905;DHT22;61048;52.162;4.516;2023-08-12T03:45:08;23.80;64.30
72905;DHT22;61048;52.162;4.516;2023-08-12T03:47:35;23.80;64.30
72905;DHT22;61048;52.162;4.516;2023-08-12T03:50:02;23.80;64.40
72905;DHT22;61048;52.162;4.516;2023-08-12T03:52:29;23.80;64.20
72905;DHT22;61048;52.162;4.516;2023-08-12T03:54:57;23.80;64.30
72905;DHT22;61048;52.162;4.516;2023-08-12T03:57:25;23.80;64.30
72905;DHT22;61048;52.162;4.516;2023-08-12T03:59:52;23.80;64.30
72905;DHT22;61048;52.162;4.516;2023-08-12T04:02:19;23.80;64.50
72905;DHT22;61048;52.162;4.516;2023-08-12T04:04:46;23.80;64.30
72905;DHT22;61048;52.162;4.516;2023-08-12T04:07:13;23.80;64.50
72905;DHT22;61048;52.162;4.516;2023-08-12T04:09:40;23.80;64.30
72905;DHT22;61048;52.162;4.516;2023-08-12T04:12:07;23.80;64.70
72905;DHT22;61048;52.162;4.516;2023-08-12T04:14:36;23.80;64.50
72905;DHT22;61048;52.162;4.516;2023-08-12T04:17:03;23.80;64.40
72905;DHT22;61048;52.162;4.516;2023-08-12T04:19:30;23.80;64.50
72905;DHT22;61048;52.162;4.516;2023-08-12T04:21:57;23.80;64.40
72905;DHT22;61048;52.162;4.516;2023-08-12T04:24:24;23.70;64.40
72905;DHT22;61048;52.162;4.516;2023-08-12T04:26:51;23.70;64.20
72905;DHT22;61048;52.162;4.516;2023-08-12T04:29:18;23.70;65.00
72905;DHT22;61048;52.162;4.516;2023-08-12T04:31:46;23.80;64.70
72905;DHT22;61048;52.162;4.516;2023-08-12T04:36:41;24.10;64.30
72905;DHT22;61048;52.162;4.516;2023-08-12T04:39:08;23.80;64.90
72905;DHT22;61048;52.162;4.516;2023-08-12T04:41:36;23.80;64.90
72905;DHT22;61048;52.162;4.516;2023-08-12T04:44:04;23.80;65.30
72905;DHT22;61048;52.162;4.516;2023-08-12T04:46:31;23.80;66.80
72905;DHT22;61048;52.162;4.516;2023-08-12T04:48:59;23.80;66.30
72905;DHT22;61048;52.162;4.516;2023-08-12T04:51:26;23.80;65.80
72905;DHT22;61048;52.162;4.516;2023-08-12T04:53:53;23.80;65.70
72905;DHT22;61048;52.162;4.516;2023-08-12T04:56:20;23.80;65.50
72905;DHT22;61048;52.162;4.516;2023-08-12T04:58:47;23.80;65.30
72905;DHT22;61048;52.162;4.516;2023-08-12T05:01:14;23.70;65.30
72905;DHT22;61048;52.162;4.516;2023-08-12T05:03:41;23.80;65.30
72905;DHT22;61048;52.162;4.516;2023-08-12T05:06:10;23.70;65.40
72905;DHT22;61048;52.162;4.516;2023-08-12T05:08:36;23.70;65.30
72905;DHT22;61048;52.162;4.516;2023-08-12T05:11:03;23.70;65.30
72905;DHT22;61048;52.162;4.516;2023-08-12T05:13:30;23.70;65.40
72905;DHT22;61048;52.162;4.516;2023-08-12T05:15:57;23.70;65.20
72905;DHT22;61048;52.162;4.516;2023-08-12T05:18:24;23.70;65.20
72905;DHT22;61048;52.162;4.516;2023-08-12T05:20:52;23.70;65.20
72905;DHT22;61048;52.162;4.516;2023-08-12T05:23:21;23.70;65.20
72905;DHT22;61048;52.162;4.516;2023-08-12T05:25:48;23.70;65.20
72905;DHT22;61048;52.162;4.516;2023-08-12T05:28:15;23.70;65.20
72905;DHT22;61048;52.162;4.516;2023-08-12T05:30:42;23.70;65.30
72905;DHT22;61048;52.162;4.516;2023-08-12T05:33:09;23.70;65.30
72905;DHT22;61048;52.162;4.516;2023-08-12T05:35:36;23.70;65.30
72905;DHT22;61048;52.162;4.516;2023-08-12T05:38:03;23.60;65.20
72905;DHT22;61048;52.162;4.516;2023-08-12T05:40:31;23.60;65.40
72905;DHT22;61048;52.162;4.516;2023-08-12T05:42:58;23.60;65.20
72905;DHT22;61048;52.162;4.516;2023-08-12T05:45:25;23.60;65.30
72905;DHT22;61048;52.162;4.516;2023-08-12T05:47:52;23.60;65.40
72905;DHT22;61048;52.162;4.516;2023-08-12T05:50:19;23.60;65.30
72905;DHT22;61048;52.162;4.516;2023-08-12T05:52:46;23.60;65.30
72905;DHT22;61048;52.162;4.516;2023-08-12T05:55:13;23.60;65.40
72905;DHT22;61048;52.162;4.516;2023-08-12T05:57:41;23.60;65.40
72905;DHT22;61048;52.162;4.516;2023-08-12T06:00:09;23.60;65.30
72905;DHT22;61048;52.162;4.516;2023-08-12T06:02:36;23.60;65.40
72905;DHT22;61048;52.162;4.516;2023-08-12T06:05:03;23.60;65.40
72905;DHT22;61048;52.162;4.516;2023-08-12T06:07:30;23.50;65.30
72905;DHT22;61048;52.162;4.516;2023-08-12T06:09:57;23.50;65.50
72905;DHT22;61048;52.162;4.516;2023-08-12T06:12:24;23.50;65.60
72905;DHT22;61048;52.162;4.516;2023-08-12T06:14:53;23.50;65.50
72905;DHT22;61048;52.162;4.516;2023-08-12T06:17:20;23.50;65.40
72905;DHT22;61048;52.162;4.516;2023-08-12T06:19:47;23.50;65.50
72905;DHT22;61048;52.162;4.516;2023-08-12T06:22:14;23.50;65.50
72905;DHT22;61048;52.162;4.516;2023-08-12T06:24:40;23.50;65.50
72905;DHT22;61048;52.162;4.516;2023-08-12T06:27:07;23.50;65.50
72905;DHT22;61048;52.162;4.516;2023-08-12T06:29:34;23.50;65.50
72905;DHT22;61048;52.162;4.516;2023-08-12T06:32:03;23.50;65.50
72905;DHT22;61048;52.162;4.516;2023-08-12T06:34:30;23.50;65.50
72905;DHT22;61048;52.162;4.516;2023-08-12T06:36:57;23.50;65.60
72905;DHT22;61048;52.162;4.516;2023-08-12T06:39:23;23.50;65.60
72905;DHT22;61048;52.162;4.516;2023-08-12T06:41:50;23.50;65.60
72905;DHT22;61048;52.162;4.516;2023-08-12T06:44:18;23.50;65.60
72905;DHT22;61048;52.162;4.516;2023-08-12T06:46:45;23.50;65.60
72905;DHT22;61048;52.162;4.516;2023-08-12T06:49:13;23.50;65.70
72905;DHT22;61048;52.162;4.516;2023-08-12T06:51:40;23.50;65.70
72905;DHT22;61048;52.162;4.516;2023-08-12T06:54:07;23.50;65.70
72905;DHT22;61048;52.162;4.516;2023-08-12T06:56:34;23.50;65.70
72905;DHT22;61048;52.162;4.516;2023-08-12T06:59:01;23.50;65.60
72905;DHT22;61048;52.162;4.516;2023-08-12T07:01:28;23.40;65.60
72905;DHT22;61048;52.162;4.516;2023-08-12T07:03:55;23.40;65.80
72905;DHT22;61048;52.162;4.516;2023-08-12T07:06:23;23.50;65.90
72905;DHT22;61048;52.162;4.516;2023-08-12T07:08:50;23.40;65.80
72905;DHT22;61048;52.162;4.516;2023-08-12T07:11:17;23.40;65.80
72905;DHT22;61048;52.162;4.516;2023-08-12T07:13:44;23.40;65.60
72905;DHT22;61048;52.162;4.516;2023-08-12T07:16:12;23.40;65.70
72905;DHT22;61048;52.162;4.516;2023-08-12T07:18:39;23.40;65.60
72905;DHT22;61048;52.162;4.516;2023-08-12T07:21:06;23.40;65.40
72905;DHT22;61048;52.162;4.516;2023-08-12T07:23:34;23.40;65.20
72905;DHT22;61048;52.162;4.516;2023-08-12T07:26:01;23.30;64.90
72905;DHT22;61048;52.162;4.516;2023-08-12T07:28:28;23.30;64.80
72905;DHT22;61048;52.162;4.516;2023-08-12T07:30:55;23.10;62.90
72905;DHT22;61048;52.162;4.516;2023-08-12T07:33:22;22.90;62.90
72905;DHT22;61048;52.162;4.516;2023-08-12T07:38:17;23.10;62.90
72905;DHT22;61048;52.162;4.516;2023-08-12T07:40:45;22.80;63.20
72905;DHT22;61048;52.162;4.516;2023-08-12T07:43:12;22.70;62.90
72905;DHT22;61048;52.162;4.516;2023-08-12T07:45:39;22.70;63.10
72905;DHT22;61048;52.162;4.516;2023-08-12T07:48:06;22.80;63.00
72905;DHT22;61048;52.162;4.516;2023-08-12T07:50:34;22.80;63.30
72905;DHT22;61048;52.162;4.516;2023-08-12T07:53:01;22.90;63.30
72905;DHT22;61048;52.162;4.516;2023-08-12T07:55:28;23.00;63.40
72905;DHT22;61048;52.162;4.516;2023-08-12T07:57:56;23.00;63.30
72905;DHT22;61048;52.162;4.516;2023-08-12T08:00:23;23.00;63.40
72905;DHT22;61048;52.162;4.516;2023-08-12T08:02:50;23.10;63.50
72905;DHT22;61048;52.162;4.516;2023-08-12T08:05:17;23.00;63.20
72905;DHT22;61048;52.162;4.516;2023-08-12T08:07:44;23.10;63.40
72905;DHT22;61048;52.162;4.516;2023-08-12T08:10:11;23.10;63.40
72905;DHT22;61048;52.162;4.516;2023-08-12T08:12:38;23.10;63.40
72905;DHT22;61048;52.162;4.516;2023-08-12T08:15:07;23.10;63.50
72905;DHT22;61048;52.162;4.516;2023-08-12T08:17:34;23.10;63.40
72905;DHT22;61048;52.162;4.516;2023-08-12T08:20:02;23.10;63.50
72905;DHT22;61048;52.162;4.516;2023-08-12T08:22:30;23.10;63.60
72905;DHT22;61048;52.162;4.516;2023-08-12T08:24:57;23.10;63.70
72905;DHT22;61048;52.162;4.516;2023-08-12T08:27:24;23.20;63.60
72905;DHT22;61048;52.162;4.516;2023-08-12T08:29:51;23.20;63.50
72905;DHT22;61048;52.162;4.516;2023-08-12T08:32:20;23.20;63.40
72905;DHT22;61048;52.162;4.516;2023-08-12T08:34:47;23.20;63.30
72905;DHT22;61048;52.162;4.516;2023-08-12T08:37:14;23.20;63.20
72905;DHT22;61048;52.162;4.516;2023-08-12T08:39:41;23.20;63.10
72905;DHT22;61048;52.162;4.516;2023-08-12T08:42:10;23.20;63.10
72905;DHT22;61048;52.162;4.516;2023-08-12T08:44:40;23.20;63.10
72905;DHT22;61048;52.162;4.516;2023-08-12T08:47:09;23.20;63.00
72905;DHT22;61048;52.162;4.516;2023-08-12T08:49:38;23.20;63.10
72905;DHT22;61048;52.162;4.516;2023-08-12T08:52:05;23.20;63.00
72905;DHT22;61048;52.162;4.516;2023-08-12T08:54:32;23.30;63.00
72905;DHT22;61048;52.162;4.516;2023-08-12T08:57:00;23.30;63.10
72905;DHT22;61048;52.162;4.516;2023-08-12T08:59:28;23.40;63.10
72905;DHT22;61048;52.162;4.516;2023-08-12T09:01:56;23.40;62.90
72905;DHT22;61048;52.162;4.516;2023-08-12T09:04:24;23.50;62.80
72905;DHT22;61048;52.162;4.516;2023-08-12T09:06:53;23.50;62.70
72905;DHT22;61048;52.162;4.516;2023-08-12T09:09:23;23.60;62.50
72905;DHT22;61048;52.162;4.516;2023-08-12T09:11:52;23.60;62.40
72905;DHT22;61048;52.162;4.516;2023-08-12T09:14:19;23.60;62.30
72905;DHT22;61048;52.162;4.516;2023-08-12T09:16:46;23.70;62.20
72905;DHT22;61048;52.162;4.516;2023-08-12T09:19:14;23.70;61.90
72905;DHT22;61048;52.162;4.516;2023-08-12T09:21:42;23.70;61.80
72905;DHT22;61048;52.162;4.516;2023-08-12T09:24:10;23.80;61.40
72905;DHT22;61048;52.162;4.516;2023-08-12T09:26:42;23.80;60.90
72905;DHT22;61048;52.162;4.516;2023-08-12T09:29:09;23.80;60.90
72905;DHT22;61048;52.162;4.516;2023-08-12T09:31:37;23.80;60.30
72905;DHT22;61048;52.162;4.516;2023-08-12T09:34:05;23.80;60.40
72905;DHT22;61048;52.162;4.516;2023-08-12T09:36:33;23.80;60.20
72905;DHT22;61048;52.162;4.516;2023-08-12T09:39:06;23.80;60.40
72905;DHT22;61048;52.162;4.516;2023-08-12T09:41:36;23.90;60.20
72905;DHT22;61048;52.162;4.516;2023-08-12T09:44:04;23.90;60.10
72905;DHT22;61048;52.162;4.516;2023-08-12T09:46:33;24.00;60.00
72905;DHT22;61048;52.162;4.516;2023-08-12T09:49:00;24.00;59.90
72905;DHT22;61048;52.162;4.516;2023-08-12T09:51:27;24.00;59.80
72905;DHT22;61048;52.162;4.516;2023-08-12T09:53:54;23.90;59.80
72905;DHT22;61048;52.162;4.516;2023-08-12T09:56:23;23.90;59.70
72905;DHT22;61048;52.162;4.516;2023-08-12T09:58:52;24.00;59.80
72905;DHT22;61048;52.162;4.516;2023-08-12T10:01:20;24.00;59.90
72905;DHT22;61048;52.162;4.516;2023-08-12T10:03:49;24.00;59.80
72905;DHT22;61048;52.162;4.516;2023-08-12T10:06:17;24.00;59.70
72905;DHT22;61048;52.162;4.516;2023-08-12T10:08:46;24.10;59.80
72905;DHT22;61048;52.162;4.516;2023-08-12T10:11:13;24.10;59.80
72905;DHT22;61048;52.162;4.516;2023-08-12T10:13:41;24.20;59.80
72905;DHT22;61048;52.162;4.516;2023-08-12T10:16:09;24.20;59.70
72905;DHT22;61048;52.162;4.516;2023-08-12T10:18:39;24.20;59.70
72905;DHT22;61048;52.162;4.516;2023-08-12T10:21:09;24.20;59.80
72905;DHT22;61048;52.162;4.516;2023-08-12T10:23:36;24.30;59.70
72905;DHT22;61048;52.162;4.516;2023-08-12T10:26:05;24.30;59.70
72905;DHT22;61048;52.162;4.516;2023-08-12T10:28:33;24.30;59.70
72905;DHT22;61048;52.162;4.516;2023-08-12T10:31:03;24.30;59.70
72905;DHT22;61048;52.162;4.516;2023-08-12T10:33:35;24.30;59.60
72905;DHT22;61048;52.162;4.516;2023-08-12T10:36:02;24.30;59.50
72905;DHT22;61048;52.162;4.516;2023-08-12T10:38:30;24.30;59.50
72905;DHT22;61048;52.162;4.516;2023-08-12T10:41:16;24.30;59.50
72905;DHT22;61048;52.162;4.516;2023-08-12T10:43:53;24.30;59.50
72905;DHT22;61048;52.162;4.516;2023-08-12T10:46:29;24.40;59.40
72905;DHT22;61048;52.162;4.516;2023-08-12T10:49:08;24.40;59.50
72905;DHT22;61048;52.162;4.516;2023-08-12T10:51:44;24.40;59.40
72905;DHT22;61048;52.162;4.516;2023-08-12T10:54:22;24.40;59.40
72905;DHT22;61048;52.162;4.516;2023-08-12T10:57:10;24.30;59.50
72905;DHT22;61048;52.162;4.516;2023-08-12T10:59:51;24.40;59.50
72905;DHT22;61048;52.162;4.516;2023-08-12T11:02:21;24.40;59.50
72905;DHT22;61048;52.162;4.516;2023-08-12T11:04:52;24.40;59.60
72905;DHT22;61048;52.162;4.516;2023-08-12T11:07:20;24.40;59.60
72905;DHT22;61048;52.162;4.516;2023-08-12T11:09:51;24.50;59.50
72905;DHT22;61048;52.162;4.516;2023-08-12T11:12:28;24.50;59.50
72905;DHT22;61048;52.162;4.516;2023-08-12T11:14:58;24.50;59.50
72905;DHT22;61048;52.162;4.516;2023-08-12T11:17:30;24.50;59.80
72905;DHT22;61048;52.162;4.516;2023-08-12T11:20:00;24.50;59.90
72905;DHT22;61048;52.162;4.516;2023-08-12T11:22:30;24.50;59.80
72905;DHT22;61048;52.162;4.516;2023-08-12T11:24:57;24.50;60.00
72905;DHT22;61048;52.162;4.516;2023-08-12T11:27:24;24.50;60.20
72905;DHT22;61048;52.162;4.516;2023-08-12T11:29:51;24.50;60.40
72905;DHT22;61048;52.162;4.516;2023-08-12T11:32:18;24.50;60.30
72905;DHT22;61048;52.162;4.516;2023-08-12T11:34:45;24.60;60.60
72905;DHT22;61048;52.162;4.516;2023-08-12T11:37:13;24.60;60.60
72905;DHT22;61048;52.162;4.516;2023-08-12T11:39:40;24.60;60.70
72905;DHT22;61048;52.162;4.516;2023-08-12T11:42:07;24.60;60.80
72905;DHT22;61048;52.162;4.516;2023-08-12T11:44:34;24.60;60.60
72905;DHT22;61048;52.162;4.516;2023-08-12T11:47:01;24.60;60.80
72905;DHT22;61048;52.162;4.516;2023-08-12T11:49:28;24.60;61.10
72905;DHT22;61048;52.162;4.516;2023-08-12T11:51:58;24.60;60.90
72905;DHT22;61048;52.162;4.516;2023-08-12T11:54:27;24.60;61.20
72905;DHT22;61048;52.162;4.516;2023-08-12T11:56:54;24.60;60.90
72905;DHT22;61048;52.162;4.516;2023-08-12T11:59:22;24.60;60.80
72905;DHT22;61048;52.162;4.516;2023-08-12T12:01:49;24.70;60.80
72905;DHT22;61048;52.162;4.516;2023-08-12T12:04:16;24.60;57.80
72905;DHT22;61048;52.162;4.516;2023-08-12T12:06:46;24.30;60.10
72905;DHT22;61048;52.162;4.516;2023-08-12T12:09:15;24.40;59.70
72905;DHT22;61048;52.162;4.516;2023-08-12T12:11:45;24.50;60.20
72905;DHT22;61048;52.162;4.516;2023-08-12T12:14:12;24.50;60.40
72905;DHT22;61048;52.162;4.516;2023-08-12T12:16:40;24.60;60.60
72905;DHT22;61048;52.162;4.516;2023-08-12T12:19:15;24.60;60.40
72905;DHT22;61048;52.162;4.516;2023-08-12T12:21:43;24.60;60.20
72905;DHT22;61048;52.162;4.516;2023-08-12T12:24:11;24.70;60.10
72905;DHT22;61048;52.162;4.516;2023-08-12T12:26:38;24.70;60.10
72905;DHT22;61048;52.162;4.516;2023-08-12T12:29:07;24.70;60.30
72905;DHT22;61048;52.162;4.516;2023-08-12T12:31:37;24.70;60.00
72905;DHT22;61048;52.162;4.516;2023-08-12T12:34:07;24.70;60.10
72905;DHT22;61048;52.162;4.516;2023-08-12T12:36:37;24.70;59.90
72905;DHT22;61048;52.162;4.516;2023-08-12T12:39:04;24.70;59.90
72905;DHT22;61048;52.162;4.516;2023-08-12T12:41:32;24.80;60.00
72905;DHT22;61048;52.162;4.516;2023-08-12T12:44:00;24.80;59.70
72905;DHT22;61048;52.162;4.516;2023-08-12T12:46:29;24.80;59.80
72905;DHT22;61048;52.162;4.516;2023-08-12T12:48:56;24.80;59.60
72905;DHT22;61048;52.162;4.516;2023-08-12T12:51:23;24.80;59.60
72905;DHT22;61048;52.162;4.516;2023-08-12T12:53:50;24.80;59.50
72905;DHT22;61048;52.162;4.516;2023-08-12T12:56:17;24.80;59.30
72905;DHT22;61048;52.162;4.516;2023-08-12T12:58:44;24.80;59.20
72905;DHT22;61048;52.162;4.516;2023-08-12T13:01:11;24.80;59.30
72905;DHT22;61048;52.162;4.516;2023-08-12T13:03:39;24.80;59.10
72905;DHT22;61048;52.162;4.516;2023-08-12T13:06:06;24.90;59.10
72905;DHT22;61048;52.162;4.516;2023-08-12T13:08:33;24.90;59.00
72905;DHT22;61048;52.162;4.516;2023-08-12T13:11:00;24.90;59.00
72905;DHT22;61048;52.162;4.516;2023-08-12T13:13:27;24.90;59.00
72905;DHT22;61048;52.162;4.516;2023-08-12T13:15:54;24.90;59.00
72905;DHT22;61048;52.162;4.516;2023-08-12T13:18:21;24.90;58.80
72905;DHT22;61048;52.162;4.516;2023-08-12T13:20:50;24.90;58.60
72905;DHT22;61048;52.162;4.516;2023-08-12T13:23:16;24.90;58.50
72905;DHT22;61048;52.162;4.516;2023-08-12T13:25:43;24.90;58.50
72905;DHT22;61048;52.162;4.516;2023-08-12T13:28:10;24.90;58.40
72905;DHT22;61048;52.162;4.516;2023-08-12T13:30:37;25.00;58.40
72905;DHT22;61048;52.162;4.516;2023-08-12T13:33:05;25.00;58.10
72905;DHT22;61048;52.162;4.516;2023-08-12T13:35:32;24.90;58.00
72905;DHT22;61048;52.162;4.516;2023-08-12T13:38:01;25.00;58.00
72905;DHT22;61048;52.162;4.516;2023-08-12T13:40:28;25.00;57.80
72905;DHT22;61048;52.162;4.516;2023-08-12T13:42:55;25.00;57.90
72905;DHT22;61048;52.162;4.516;2023-08-12T13:45:22;25.00;57.80
72905;DHT22;61048;52.162;4.516;2023-08-12T13:47:50;25.00;57.60
72905;DHT22;61048;52.162;4.516;2023-08-12T13:50:17;25.00;57.60
72905;DHT22;61048;52.162;4.516;2023-08-12T13:52:45;25.00;57.50
72905;DHT22;61048;52.162;4.516;2023-08-12T13:55:14;25.10;57.50
72905;DHT22;61048;52.162;4.516;2023-08-12T13:57:41;25.10;57.50
72905;DHT22;61048;52.162;4.516;2023-08-12T14:00:09;25.10;57.50
72905;DHT22;61048;52.162;4.516;2023-08-12T14:02:38;25.10;57.40
72905;DHT22;61048;52.162;4.516;2023-08-12T14:05:06;25.10;57.40
72905;DHT22;61048;52.162;4.516;2023-08-12T14:07:33;25.10;57.40
72905;DHT22;61048;52.162;4.516;2023-08-12T14:10:00;25.10;57.30
72905;DHT22;61048;52.162;4.516;2023-08-12T14:12:28;25.10;57.20
72905;DHT22;61048;52.162;4.516;2023-08-12T14:14:56;25.10;57.30
72905;DHT22;61048;52.162;4.516;2023-08-12T14:17:23;25.10;57.10
72905;DHT22;61048;52.162;4.516;2023-08-12T14:19:51;25.20;56.90
72905;DHT22;61048;52.162;4.516;2023-08-12T14:22:19;25.10;56.80
72905;DHT22;61048;52.162;4.516;2023-08-12T14:24:46;25.20;56.70
72905;DHT22;61048;52.162;4.516;2023-08-12T14:27:14;25.20;56.80
72905;DHT22;61048;52.162;4.516;2023-08-12T14:29:42;25.20;57.00
72905;DHT22;61048;52.162;4.516;2023-08-12T14:32:09;25.20;56.80
72905;DHT22;61048;52.162;4.516;2023-08-12T14:34:36;25.20;56.40
72905;DHT22;61048;52.162;4.516;2023-08-12T14:37:04;25.20;56.50
72905;DHT22;61048;52.162;4.516;2023-08-12T14:39:32;25.20;56.10
72905;DHT22;61048;52.162;4.516;2023-08-12T14:41:59;25.20;56.20
72905;DHT22;61048;52.162;4.516;2023-08-12T14:44:26;25.20;56.40
72905;DHT22;61048;52.162;4.516;2023-08-12T14:46:55;25.20;56.20
72905;DHT22;61048;52.162;4.516;2023-08-12T14:49:22;25.20;56.50
72905;DHT22;61048;52.162;4.516;2023-08-12T14:51:49;25.30;56.50
72905;DHT22;61048;52.162;4.516;2023-08-12T14:54:16;25.30;56.50
72905;DHT22;61048;52.162;4.516;2023-08-12T14:56:42;25.30;56.60
72905;DHT22;61048;52.162;4.516;2023-08-12T14:59:10;25.30;56.50
72905;DHT22;61048;52.162;4.516;2023-08-12T15:01:37;25.30;56.30
72905;DHT22;61048;52.162;4.516;2023-08-12T15:04:06;25.30;56.00
72905;DHT22;61048;52.162;4.516;2023-08-12T15:06:33;25.30;56.40
72905;DHT22;61048;52.162;4.516;2023-08-12T15:08:59;25.30;56.30
72905;DHT22;61048;52.162;4.516;2023-08-12T15:11:26;25.30;56.00
72905;DHT22;61048;52.162;4.516;2023-08-12T15:13:53;25.30;56.40
72905;DHT22;61048;52.162;4.516;2023-08-12T15:16:20;25.30;56.20
72905;DHT22;61048;52.162;4.516;2023-08-12T15:18:47;25.30;56.10
72905;DHT22;61048;52.162;4.516;2023-08-12T15:21:16;25.30;56.00
72905;DHT22;61048;52.162;4.516;2023-08-12T15:23:42;25.20;52.20
72905;DHT22;61048;52.162;4.516;2023-08-12T15:26:09;24.80;53.10
72905;DHT22;61048;52.162;4.516;2023-08-12T15:28:36;24.80;54.40
72905;DHT22;61048;52.162;4.516;2023-08-12T15:31:03;25.00;54.80
72905;DHT22;61048;52.162;4.516;2023-08-12T15:33:30;25.10;54.80
72905;DHT22;61048;52.162;4.516;2023-08-12T15:35:57;25.20;54.90
72905;DHT22;61048;52.162;4.516;2023-08-12T15:38:26;25.20;54.60